sensor_id;sensor_type;location;lat;lon;timestamp;pressure;altitude;pressure_sealevel;temperature;humidity
81397;BME280;70852;49.908;8.126;2023-06-24T00:01:28;101114.34;;;16.30;67.32
81397;BME280;70852;49.908;8.126;2023-06-24T00:03:54;101117.84;;;16.18;67.45
81397;BME280;70852;49.908;8.126;2023-06-24T00:06:24;101118.69;;;16.19;67.17
81397;BME280;70852;49.908;8.126;2023-06-24T00:08:53;101114.34;;;16.30;67.20
81397;BME280;70852;49.908;8.126;2023-06-24T00:11:29;101130.97;;;16.18;67.47
81397;BME280;70852;49.908;8.126;2023-06-24T00:13:54;101127.69;;;16.16;67.44
81397;BME280;70852;49.908;8.126;2023-06-24T00:16:20;101130.06;;;16.05;67.61
81397;BME280;70852;49.908;8.126;2023-06-24T00:18:52;101134.84;;;15.96;68.57
81397;BME280;70852;49.908;8.126;2023-06-24T00:21:20;101128.19;;;15.88;68.35
81397;BME280;70852;49.908;8.126;2023-06-24T00:23:45;101129.31;;;15.87;68.57
81397;BME280;70852;49.908;8.126;2023-06-24T00:26:16;101125.28;;;15.76;69.35
81397;BME280;70852;49.908;8.126;2023-06-24T00:28:42;101132.84;;;15.67;69.44
81397;BME280;70852;49.908;8.126;2023-06-24T00:31:10;101122.03;;;15.48;70.29
81397;BME280;70852;49.908;8.126;2023-06-24T00:33:36;101120.75;;;15.46;70.21
81397;BME280;70852;49.908;8.126;2023-06-24T00:36:02;101117.78;;;15.51;70.30
81397;BME280;70852;49.908;8.126;2023-06-24T00:38:27;101122.91;;;15.57;69.89
81397;BME280;70852;49.908;8.126;2023-06-24T00:40:57;101121.59;;;15.55;70.13
81397;BME280;70852;49.908;8.126;2023-06-24T00:43:22;101125.97;;;15.47;69.84
81397;BME280;70852;49.908;8.126;2023-06-24T00:45:50;101125.22;;;15.29;70.64
81397;BME280;70852;49.908;8.126;2023-06-24T00:48:18;101125.06;;;15.34;70.52
81397;BME280;70852;49.908;8.126;2023-06-24T00:50:47;101126.69;;;15.35;70.62
81397;BME280;70852;49.908;8.126;2023-06-24T00:53:17;101122.63;;;15.24;70.91
81397;BME280;70852;49.908;8.126;2023-06-24T00:55:44;101131.63;;;15.21;71.01
81397;BME280;70852;49.908;8.126;2023-06-24T00:58:13;101130.78;;;15.21;71.29
81397;BME280;70852;49.908;8.126;2023-06-24T01:00:49;101124.56;;;15.15;71.46
81397;BME280;70852;49.908;8.126;2023-06-24T01:03:23;101134.22;;;15.26;71.22
81397;BME280;70852;49.908;8.126;2023-06-24T01:05:50;101129.00;;;15.16;71.34
81397;BME280;70852;49.908;8.126;2023-06-24T01:08:16;101125.38;;;15.16;71.52
81397;BME280;70852;49.908;8.126;2023-06-24T01:10:45;101130.31;;;15.19;71.04
81397;BME280;70852;49.908;8.126;2023-06-24T01:13:10;101123.09;;;15.18;70.90
81397;BME280;70852;49.908;8.126;2023-06-24T01:15:39;101119.00;;;15.15;70.98
81397;BME280;70852;49.908;8.126;2023-06-24T01:18:13;101123.28;;;15.13;70.82
81397;BME280;70852;49.908;8.126;2023-06-24T01:20:45;101121.81;;;14.98;71.25
81397;BME280;70852;49.908;8.126;2023-06-24T01:37:10;101139.72;;;14.32;72.62
81397;BME280;70852;49.908;8.126;2023-06-24T01:40:25;101136.06;;;14.05;73.68
81397;BME280;70852;49.908;8.126;2023-06-24T01:42:33;101140.75;;;13.87;74.56
81397;BME280;70852;49.908;8.126;2023-06-24T01:44:59;101138.53;;;14.07;74.00
81397;BME280;70852;49.908;8.126;2023-06-24T01:47:26;101143.78;;;14.17;73.61
81397;BME280;70852;49.908;8.126;2023-06-24T01:49:54;101137.41;;;14.16;73.69
81397;BME280;70852;49.908;8.126;2023-06-24T01:52:27;101143.09;;;14.11;73.74
81397;BME280;70852;49.908;8.126;2023-06-24T01:54:55;101149.75;;;13.93;74.38
81397;BME280;70852;49.908;8.126;2023-06-24T01:57:22;101139.81;;;14.01;74.51
81397;BME280;70852;49.908;8.126;2023-06-24T01:59:48;101139.50;;;14.11;73.98
81397;BME280;70852;49.908;8.126;2023-06-24T02:02:17;101143.59;;;14.13;73.82
81397;BME280;70852;49.908;8.126;2023-06-24T02:04:48;101143.28;;;14.06;74.46
81397;BME280;70852;49.908;8.126;2023-06-24T02:07:16;101140.19;;;14.08;74.11
81397;BME280;70852;49.908;8.126;2023-06-24T02:09:44;101146.19;;;14.01;74.54
81397;BME280;70852;49.908;8.126;2023-06-24T02:12:13;101139.69;;;14.14;74.28
81397;BME280;70852;49.908;8.126;2023-06-24T02:14:43;101144.25;;;14.10;73.60
81397;BME280;70852;49.908;8.126;2023-06-24T02:17:15;101151.09;;;14.04;74.08
81397;BME280;70852;49.908;8.126;2023-06-24T02:19:42;101148.97;;;14.10;73.65
81397;BME280;70852;49.908;8.126;2023-06-24T02:22:09;101150.63;;;14.11;73.09
81397;BME280;70852;49.908;8.126;2023-06-24T02:24:38;101155.84;;;14.12;73.36
81397;BME280;70852;49.908;8.126;2023-06-24T02:27:07;101143.13;;;14.20;73.30
81397;BME280;70852;49.908;8.126;2023-06-24T02:29:37;101141.34;;;14.15;72.71
81397;BME280;70852;49.908;8.126;2023-06-24T02:32:08;101143.59;;;14.13;73.21
81397;BME280;70852;49.908;8.126;2023-06-24T02:34:34;101145.91;;;14.20;72.99
81397;BME280;70852;49.908;8.126;2023-06-24T02:36:59;101142.16;;;14.16;73.14
81397;BME280;70852;49.908;8.126;2023-06-24T02:39:25;101139.88;;;14.18;73.24
81397;BME280;70852;49.908;8.126;2023-06-24T02:41:52;101145.25;;;14.14;73.85
81397;BME280;70852;49.908;8.126;2023-06-24T02:44:18;101137.72;;;14.15;73.31
81397;BME280;70852;49.908;8.126;2023-06-24T02:46:46;101144.09;;;14.07;73.52
81397;BME280;70852;49.908;8.126;2023-06-24T02:49:15;101146.38;;;14.05;73.62
81397;BME280;70852;49.908;8.126;2023-06-24T02:51:43;101144.09;;;14.07;73.46
81397;BME280;70852;49.908;8.126;2023-06-24T02:54:09;101149.78;;;14.02;73.62
81397;BME280;70852;49.908;8.126;2023-06-24T02:56:39;101148.50;;;14.08;73.23
81397;BME280;70852;49.908;8.126;2023-06-24T02:59:07;101154.19;;;14.03;72.99
81397;BME280;70852;49.908;8.126;2023-06-24T03:01:34;101156.59;;;13.87;73.56
81397;BME280;70852;49.908;8.126;2023-06-24T03:04:04;101156.09;;;13.85;73.62
81397;BME280;70852;49.908;8.126;2023-06-24T03:06:32;101147.22;;;13.74;74.10
81397;BME280;70852;49.908;8.126;2023-06-24T03:09:00;101155.06;;;13.72;74.34
81397;BME280;70852;49.908;8.126;2023-06-24T03:11:25;101155.56;;;13.74;74.28
81397;BME280;70852;49.908;8.126;2023-06-24T03:13:51;101152.47;;;13.76;74.67
81397;BME280;70852;49.908;8.126;2023-06-24T03:16:16;101155.38;;;13.71;74.77
81397;BME280;70852;49.908;8.126;2023-06-24T03:18:44;101153.41;;;13.71;74.96
81397;BME280;70852;49.908;8.126;2023-06-24T03:21:10;101155.84;;;13.64;74.91
81397;BME280;70852;49.908;8.126;2023-06-24T03:23:37;101157.63;;;13.69;74.48
81397;BME280;70852;49.908;8.126;2023-06-24T03:26:05;101160.94;;;13.79;74.63
81397;BME280;70852;49.908;8.126;2023-06-24T03:28:30;101162.38;;;13.68;74.76
81397;BME280;70852;49.908;8.126;2023-06-24T03:30:57;101156.88;;;13.77;74.59
81397;BME280;70852;49.908;8.126;2023-06-24T03:33:23;101156.34;;;13.66;74.47
81397;BME280;70852;49.908;8.126;2023-06-24T03:35:50;101155.31;;;13.62;75.03
81397;BME280;70852;49.908;8.126;2023-06-24T03:38:17;101152.19;;;13.55;75.13
81397;BME280;70852;49.908;8.126;2023-06-24T03:40:45;101164.78;;;13.61;75.16
81397;BME280;70852;49.908;8.126;2023-06-24T03:43:10;101159.75;;;13.63;75.30
81397;BME280;70852;49.908;8.126;2023-06-24T03:45:35;101165.69;;;13.79;74.28
81397;BME280;70852;49.908;8.126;2023-06-24T03:48:03;101168.53;;;13.87;74.67
81397;BME280;70852;49.908;8.126;2023-06-24T03:50:28;101162.63;;;13.89;74.08
81397;BME280;70852;49.908;8.126;2023-06-24T03:52:56;101169.81;;;13.90;74.23
81397;BME280;70852;49.908;8.126;2023-06-24T03:55:21;101169.22;;;14.02;73.83
81397;BME280;70852;49.908;8.126;2023-06-24T03:57:47;101164.47;;;14.02;73.45
81397;BME280;70852;49.908;8.126;2023-06-24T04:00:12;101163.66;;;14.02;73.64
81397;BME280;70852;49.908;8.126;2023-06-24T04:02:42;101167.13;;;14.07;72.98
81397;BME280;70852;49.908;8.126;2023-06-24T04:05:09;101175.63;;;14.11;72.64
81397;BME280;70852;49.908;8.126;2023-06-24T04:07:35;101167.59;;;14.09;73.17
81397;BME280;70852;49.908;8.126;2023-06-24T04:10:02;101178.28;;;14.16;73.44
81397;BME280;70852;49.908;8.126;2023-06-24T04:12:28;101165.72;;;14.27;73.80
81397;BME280;70852;49.908;8.126;2023-06-24T04:14:54;101168.34;;;14.32;73.64
81397;BME280;70852;49.908;8.126;2023-06-24T04:17:19;101174.13;;;14.44;73.14
81397;BME280;70852;49.908;8.126;2023-06-24T04:19:44;101174.56;;;14.38;72.85
81397;BME280;70852;49.908;8.126;2023-06-24T04:22:10;101167.59;;;14.40;72.80
81397;BME280;70852;49.908;8.126;2023-06-24T04:24:37;101176.75;;;14.41;72.22
81397;BME280;70852;49.908;8.126;2023-06-24T04:27:03;101172.63;;;14.38;72.98
81397;BME280;70852;49.908;8.126;2023-06-24T04:29:28;101175.25;;;14.43;72.04
81397;BME280;70852;49.908;8.126;2023-06-24T04:31:53;101184.28;;;14.57;72.31
81397;BME280;70852;49.908;8.126;2023-06-24T04:34:18;101179.88;;;14.74;71.74
81397;BME280;70852;49.908;8.126;2023-06-24T04:36:46;101177.44;;;14.72;72.00
81397;BME280;70852;49.908;8.126;2023-06-24T04:39:17;101177.28;;;14.86;71.91
81397;BME280;70852;49.908;8.126;2023-06-24T04:41:43;101181.88;;;14.90;71.34
81397;BME280;70852;49.908;8.126;2023-06-24T04:44:08;101178.78;;;14.92;71.58
81397;BME280;70852;49.908;8.126;2023-06-24T04:46:33;101184.16;;;14.97;71.65
81397;BME280;70852;49.908;8.126;2023-06-24T04:49:02;101189.88;;;14.75;72.19
81397;BME280;70852;49.908;8.126;2023-06-24T04:51:31;101187.41;;;14.64;72.68
81397;BME280;70852;49.908;8.126;2023-06-24T04:53:59;101191.53;;;14.93;72.23
81397;BME280;70852;49.908;8.126;2023-06-24T04:56:25;101188.75;;;14.93;71.89
81397;BME280;70852;49.908;8.126;2023-06-24T04:58:51;101192.81;;;14.87;71.95
81397;BME280;70852;49.908;8.126;2023-06-24T05:01:17;101201.00;;;14.83;72.35
81397;BME280;70852;49.908;8.126;2023-06-24T05:03:42;101201.34;;;14.90;72.33
81397;BME280;70852;49.908;8.126;2023-06-24T05:06:10;101197.09;;;15.19;71.84
81397;BME280;70852;49.908;8.126;2023-06-24T05:08:35;101206.09;;;15.24;71.39
81397;BME280;70852;49.908;8.126;2023-06-24T05:11:03;101199.38;;;15.25;70.98
81397;BME280;70852;49.908;8.126;2023-06-24T05:13:31;101208.22;;;15.10;72.17
81397;BME280;70852;49.908;8.126;2023-06-24T05:15:58;101206.22;;;15.36;71.10
81397;BME280;70852;49.908;8.126;2023-06-24T05:18:23;101200.97;;;15.69;70.28
81397;BME280;70852;49.908;8.126;2023-06-24T05:20:49;101206.63;;;15.90;69.58
81397;BME280;70852;49.908;8.126;2023-06-24T05:23:17;101203.03;;;15.98;69.12
81397;BME280;70852;49.908;8.126;2023-06-24T05:25:42;101204.53;;;16.25;69.26
81397;BME280;70852;49.908;8.126;2023-06-24T05:28:12;101204.09;;;16.44;66.80
81397;BME280;70852;49.908;8.126;2023-06-24T05:30:41;101204.06;;;16.53;67.70
81397;BME280;70852;49.908;8.126;2023-06-24T05:33:06;101211.72;;;16.64;67.31
81397;BME280;70852;49.908;8.126;2023-06-24T05:35:34;101202.09;;;16.62;66.87
81397;BME280;70852;49.908;8.126;2023-06-24T05:38:01;101208.69;;;16.48;67.69
81397;BME280;70852;49.908;8.126;2023-06-24T05:40:27;101207.13;;;16.89;66.39
81397;BME280;70852;49.908;8.126;2023-06-24T05:42:52;101210.47;;;16.82;67.91
81397;BME280;70852;49.908;8.126;2023-06-24T05:45:19;101207.88;;;17.19;67.46
81397;BME280;70852;49.908;8.126;2023-06-24T05:47:45;101217.53;;;17.42;66.64
81397;BME280;70852;49.908;8.126;2023-06-24T05:50:14;101215.75;;;17.59;67.49
81397;BME280;70852;49.908;8.126;2023-06-24T05:52:39;101216.19;;;17.61;66.57
81397;BME280;70852;49.908;8.126;2023-06-24T05:55:04;101213.97;;;17.54;66.82
81397;BME280;70852;49.908;8.126;2023-06-24T05:57:34;101216.38;;;17.43;66.27
81397;BME280;70852;49.908;8.126;2023-06-24T06:00:05;101208.13;;;17.47;66.70
81397;BME280;70852;49.908;8.126;2023-06-24T06:02:32;101213.03;;;17.83;66.51
81397;BME280;70852;49.908;8.126;2023-06-24T06:04:58;101212.13;;;18.03;65.66
81397;BME280;70852;49.908;8.126;2023-06-24T06:07:23;101216.13;;;18.26;65.64
81397;BME280;70852;49.908;8.126;2023-06-24T06:09:51;101216.59;;;18.53;64.90
81397;BME280;70852;49.908;8.126;2023-06-24T06:12:20;101213.34;;;18.63;63.66
81397;BME280;70852;49.908;8.126;2023-06-24T06:14:46;101220.19;;;18.90;62.44
81397;BME280;70852;49.908;8.126;2023-06-24T06:17:14;101214.53;;;19.14;62.94
81397;BME280;70852;49.908;8.126;2023-06-24T06:19:39;101209.63;;;19.11;61.29
81397;BME280;70852;49.908;8.126;2023-06-24T06:22:07;101211.69;;;19.26;60.17
81397;BME280;70852;49.908;8.126;2023-06-24T06:24:32;101211.59;;;19.23;60.95
81397;BME280;70852;49.908;8.126;2023-06-24T06:26:58;101216.28;;;19.47;59.29
81397;BME280;70852;49.908;8.126;2023-06-24T06:29:27;101215.09;;;19.60;59.54
81397;BME280;70852;49.908;8.126;2023-06-24T06:31:53;101213.75;;;19.69;59.63
81397;BME280;70852;49.908;8.126;2023-06-24T06:34:20;101211.09;;;19.61;58.98
81397;BME280;70852;49.908;8.126;2023-06-24T06:36:45;101210.16;;;19.85;60.15
81397;BME280;70852;49.908;8.126;2023-06-24T06:39:10;101212.50;;;20.14;58.81
81397;BME280;70852;49.908;8.126;2023-06-24T06:41:40;101205.38;;;20.64;57.68
81397;BME280;70852;49.908;8.126;2023-06-24T06:44:05;101209.28;;;20.43;57.21
81397;BME280;70852;49.908;8.126;2023-06-24T06:46:30;101209.81;;;20.65;54.76
81397;BME280;70852;49.908;8.126;2023-06-24T06:48:56;101211.59;;;21.08;52.62
81397;BME280;70852;49.908;8.126;2023-06-24T06:51:21;101205.69;;;21.93;49.45
81397;BME280;70852;49.908;8.126;2023-06-24T06:53:49;101205.09;;;22.76;48.89
81397;BME280;70852;49.908;8.126;2023-06-24T06:56:24;101215.41;;;23.24;46.62
81397;BME280;70852;49.908;8.126;2023-06-24T06:58:54;101210.00;;;23.72;46.19
81397;BME280;70852;49.908;8.126;2023-06-24T07:01:20;101214.34;;;24.03;45.86
81397;BME280;70852;49.908;8.126;2023-06-24T07:03:45;101203.28;;;24.28;44.70
81397;BME280;70852;49.908;8.126;2023-06-24T07:06:11;101211.31;;;24.73;43.86
81397;BME280;70852;49.908;8.126;2023-06-24T07:08:36;101212.16;;;24.77;42.82
81397;BME280;70852;49.908;8.126;2023-06-24T07:11:07;101206.66;;;25.02;42.71
81397;BME280;70852;49.908;8.126;2023-06-24T07:13:32;101207.63;;;25.31;43.20
81397;BME280;70852;49.908;8.126;2023-06-24T07:15:59;101209.72;;;25.59;42.79
81397;BME280;70852;49.908;8.126;2023-06-24T07:18:25;101209.56;;;25.16;42.62
81397;BME280;70852;49.908;8.126;2023-06-24T07:20:55;101208.63;;;25.85;41.42
81397;BME280;70852;49.908;8.126;2023-06-24T07:23:20;101209.44;;;26.17;40.79
81397;BME280;70852;49.908;8.126;2023-06-24T07:25:48;101202.97;;;26.20;40.79
81397;BME280;70852;49.908;8.126;2023-06-24T07:28:13;101207.06;;;26.48;40.03
81397;BME280;70852;49.908;8.126;2023-06-24T07:30:40;101205.44;;;26.68;39.73
81397;BME280;70852;49.908;8.126;2023-06-24T07:33:07;101202.56;;;26.89;39.43
81397;BME280;70852;49.908;8.126;2023-06-24T07:35:32;101198.50;;;26.98;39.15
81397;BME280;70852;49.908;8.126;2023-06-24T07:37:58;101206.84;;;27.40;38.79
81397;BME280;70852;49.908;8.126;2023-06-24T07:40:26;101204.09;;;27.19;39.58
81397;BME280;70852;49.908;8.126;2023-06-24T07:42:56;101203.66;;;27.27;38.79
81397;BME280;70852;49.908;8.126;2023-06-24T07:45:21;101204.91;;;27.19;39.31
81397;BME280;70852;49.908;8.126;2023-06-24T07:47:49;101207.78;;;27.09;38.27
81397;BME280;70852;49.908;8.126;2023-06-24T07:50:17;101204.19;;;27.01;39.05
81397;BME280;70852;49.908;8.126;2023-06-24T07:52:42;101202.75;;;27.45;38.34
81397;BME280;70852;49.908;8.126;2023-06-24T07:55:10;101211.38;;;27.23;39.02
81397;BME280;70852;49.908;8.126;2023-06-24T07:57:38;101200.59;;;26.44;39.50
81397;BME280;70852;49.908;8.126;2023-06-24T08:00:06;101201.78;;;26.53;39.95
81397;BME280;70852;49.908;8.126;2023-06-24T08:02:37;101201.38;;;26.62;40.36
81397;BME280;70852;49.908;8.126;2023-06-24T08:05:02;101205.44;;;26.68;39.44
81397;BME280;70852;49.908;8.126;2023-06-24T08:07:28;101202.19;;;26.80;38.21
81397;BME280;70852;49.908;8.126;2023-06-24T08:09:53;101207.88;;;26.27;40.32
81397;BME280;70852;49.908;8.126;2023-06-24T08:12:18;101206.25;;;26.54;39.37
81397;BME280;70852;49.908;8.126;2023-06-24T08:14:48;101195.66;;;26.90;39.27
81397;BME280;70852;49.908;8.126;2023-06-24T08:17:13;101198.09;;;26.99;37.65
81397;BME280;70852;49.908;8.126;2023-06-24T08:19:39;101199.59;;;27.28;38.31
81397;BME280;70852;49.908;8.126;2023-06-24T08:22:04;101198.81;;;27.24;37.60
81397;BME280;70852;49.908;8.126;2023-06-24T08:24:29;101190.41;;;27.00;36.96
81397;BME280;70852;49.908;8.126;2023-06-24T08:26:59;101191.66;;;26.77;37.63
81397;BME280;70852;49.908;8.126;2023-06-24T08:29:25;101181.06;;;27.06;39.10
81397;BME280;70852;49.908;8.126;2023-06-24T08:31:52;101187.13;;;27.05;36.58
81397;BME280;70852;49.908;8.126;2023-06-24T08:34:17;101185.16;;;26.80;37.06
81397;BME280;70852;49.908;8.126;2023-06-24T08:36:43;101187.94;;;27.09;37.39
81397;BME280;70852;49.908;8.126;2023-06-24T08:39:08;101184.63;;;27.28;36.30
81397;BME280;70852;49.908;8.126;2023-06-24T08:41:33;101183.75;;;27.38;36.09
81397;BME280;70852;49.908;8.126;2023-06-24T08:43:59;101180.44;;;27.61;35.46
81397;BME280;70852;49.908;8.126;2023-06-24T08:46:27;101177.31;;;28.03;36.90
81397;BME280;70852;49.908;8.126;2023-06-24T08:52:06;101176.91;;;27.28;35.96
81397;BME280;70852;49.908;8.126;2023-06-24T08:54:36;101178.63;;;27.88;35.23
81397;BME280;70852;49.908;8.126;2023-06-24T08:57:02;101171.09;;;28.19;34.55
81397;BME280;70852;49.908;8.126;2023-06-24T08:59:31;101191.31;;;27.69;33.28
81397;BME280;70852;49.908;8.126;2023-06-24T09:01:59;101175.66;;;28.06;33.38
81397;BME280;70852;49.908;8.126;2023-06-24T09:04:24;101184.00;;;28.31;33.08
81397;BME280;70852;49.908;8.126;2023-06-24T09:06:52;101178.13;;;28.04;32.57
81397;BME280;70852;49.908;8.126;2023-06-24T09:09:22;101179.63;;;28.64;31.41
81397;BME280;70852;49.908;8.126;2023-06-24T09:11:51;101165.88;;;28.59;31.01
81397;BME280;70852;49.908;8.126;2023-06-24T09:14:20;101170.84;;;28.92;30.82
81397;BME280;70852;49.908;8.126;2023-06-24T09:16:59;101163.06;;;29.27;31.20
81397;BME280;70852;49.908;8.126;2023-06-24T09:19:27;101161.97;;;29.51;30.82
81397;BME280;70852;49.908;8.126;2023-06-24T09:24:30;101155.47;;;29.77;31.21
81397;BME280;70852;49.908;8.126;2023-06-24T09:26:56;101148.59;;;29.48;31.78
81397;BME280;70852;49.908;8.126;2023-06-24T09:29:29;101146.94;;;29.51;31.25
81397;BME280;70852;49.908;8.126;2023-06-24T09:31:58;101143.13;;;29.88;30.29
81397;BME280;70852;49.908;8.126;2023-06-24T09:34:28;101142.91;;;29.75;30.57
81397;BME280;70852;49.908;8.126;2023-06-24T09:36:55;101147.66;;;29.85;30.00
81397;BME280;70852;49.908;8.126;2023-06-24T09:39:26;101140.81;;;30.06;29.94
81397;BME280;70852;49.908;8.126;2023-06-24T09:41:59;101133.50;;;30.05;29.55
81397;BME280;70852;49.908;8.126;2023-06-24T09:44:28;101131.25;;;29.93;29.39
81397;BME280;70852;49.908;8.126;2023-06-24T09:46:54;101133.75;;;30.37;29.11
81397;BME280;70852;49.908;8.126;2023-06-24T09:49:20;101129.53;;;30.69;28.00
81397;BME280;70852;49.908;8.126;2023-06-24T09:51:49;101123.44;;;31.06;28.45
81397;BME280;70852;49.908;8.126;2023-06-24T09:54:18;101120.88;;;30.29;28.00
81397;BME280;70852;49.908;8.126;2023-06-24T09:56:46;101112.53;;;29.92;29.16
81397;BME280;70852;49.908;8.126;2023-06-24T09:59:13;101122.50;;;30.73;28.99
81397;BME280;70852;49.908;8.126;2023-06-24T10:01:40;101117.31;;;31.27;28.47
81397;BME280;70852;49.908;8.126;2023-06-24T10:04:06;101117.25;;;31.67;26.51
81397;BME280;70852;49.908;8.126;2023-06-24T10:06:35;101111.25;;;30.66;27.06
81397;BME280;70852;49.908;8.126;2023-06-24T10:09:03;101105.31;;;30.57;25.98
81397;BME280;70852;49.908;8.126;2023-06-24T10:11:34;101102.19;;;30.91;27.00
81397;BME280;70852;49.908;8.126;2023-06-24T10:14:04;101104.50;;;31.36;26.02
81397;BME280;70852;49.908;8.126;2023-06-24T10:16:31;101105.38;;;31.33;26.13
81397;BME280;70852;49.908;8.126;2023-06-24T10:19:04;101094.41;;;31.31;26.32
81397;BME280;70852;49.908;8.126;2023-06-24T10:21:49;101089.44;;;31.51;26.84
81397;BME280;70852;49.908;8.126;2023-06-24T10:27:08;101080.06;;;31.35;27.17
81397;BME280;70852;49.908;8.126;2023-06-24T10:29:37;101083.06;;;31.27;27.45
81397;BME280;70852;49.908;8.126;2023-06-24T10:32:07;101077.47;;;30.65;28.28
81397;BME280;70852;49.908;8.126;2023-06-24T10:34:43;101081.78;;;31.12;27.71
81397;BME280;70852;49.908;8.126;2023-06-24T10:37:30;101075.63;;;30.94;26.44
81397;BME280;70852;49.908;8.126;2023-06-24T10:39:57;101073.00;;;30.83;27.72
81397;BME280;70852;49.908;8.126;2023-06-24T10:42:42;101075.34;;;31.08;27.57
81397;BME280;70852;49.908;8.126;2023-06-24T10:47:40;101068.63;;;30.59;27.33
81397;BME280;70852;49.908;8.126;2023-06-24T10:50:14;101063.09;;;31.27;27.59
81397;BME280;70852;49.908;8.126;2023-06-24T10:52:42;101052.25;;;32.04;26.95
81397;BME280;70852;49.908;8.126;2023-06-24T10:55:08;101057.88;;;32.23;25.43
81397;BME280;70852;49.908;8.126;2023-06-24T10:57:36;101058.44;;;32.18;25.48
81397;BME280;70852;49.908;8.126;2023-06-24T11:00:03;101055.75;;;31.79;24.45
81397;BME280;70852;49.908;8.126;2023-06-24T11:02:28;101048.19;;;31.72;24.77
81397;BME280;70852;49.908;8.126;2023-06-24T11:05:03;101051.75;;;31.76;25.02
81397;BME280;70852;49.908;8.126;2023-06-24T11:07:33;101051.91;;;32.01;24.89
81397;BME280;70852;49.908;8.126;2023-06-24T11:12:39;101034.44;;;31.83;24.06
81397;BME280;70852;49.908;8.126;2023-06-24T11:15:10;101037.88;;;32.07;23.42
81397;BME280;70852;49.908;8.126;2023-06-24T11:17:37;101026.72;;;32.29;24.08
81397;BME280;70852;49.908;8.126;2023-06-24T11:20:13;101024.84;;;32.51;24.26
81397;BME280;70852;49.908;8.126;2023-06-24T11:22:46;101018.72;;;32.36;24.62
81397;BME280;70852;49.908;8.126;2023-06-24T11:25:19;101026.00;;;32.09;24.81
81397;BME280;70852;49.908;8.126;2023-06-24T11:27:46;101022.38;;;32.37;24.08
81397;BME280;70852;49.908;8.126;2023-06-24T11:30:19;101016.16;;;32.26;24.90
81397;BME280;70852;49.908;8.126;2023-06-24T11:32:47;101010.13;;;32.08;24.30
81397;BME280;70852;49.908;8.126;2023-06-24T11:35:17;101006.75;;;31.96;24.65
81397;BME280;70852;49.908;8.126;2023-06-24T11:37:48;101008.66;;;32.16;24.61
81397;BME280;70852;49.908;8.126;2023-06-24T11:40:16;101005.44;;;32.30;24.16
81397;BME280;70852;49.908;8.126;2023-06-24T11:42:43;101010.50;;;31.93;24.40
81397;BME280;70852;49.908;8.126;2023-06-24T11:45:13;101010.69;;;32.31;25.24
81397;BME280;70852;49.908;8.126;2023-06-24T11:47:40;101001.56;;;31.91;24.26
81397;BME280;70852;49.908;8.126;2023-06-24T11:50:06;100998.47;;;32.15;24.52
81397;BME280;70852;49.908;8.126;2023-06-24T11:54:58;100994.56;;;32.25;24.49
81397;BME280;70852;49.908;8.126;2023-06-24T11:57:48;100995.44;;;32.22;23.60
81397;BME280;70852;49.908;8.126;2023-06-24T12:00:19;100995.06;;;32.78;24.15
81397;BME280;70852;49.908;8.126;2023-06-24T12:02:45;100991.66;;;32.41;23.42
81397;BME280;70852;49.908;8.126;2023-06-24T12:05:11;100990.28;;;32.17;24.74
81397;BME280;70852;49.908;8.126;2023-06-24T12:07:38;100984.84;;;31.77;24.39
81397;BME280;70852;49.908;8.126;2023-06-24T12:10:07;100980.22;;;31.67;24.87
81397;BME280;70852;49.908;8.126;2023-06-24T12:12:37;100965.09;;;31.83;25.41
81397;BME280;70852;49.908;8.126;2023-06-24T12:15:10;100981.81;;;31.00;25.17
81397;BME280;70852;49.908;8.126;2023-06-24T12:17:35;100968.66;;;30.86;25.12
81397;BME280;70852;49.908;8.126;2023-06-24T12:20:03;100966.88;;;31.28;23.92
81397;BME280;70852;49.908;8.126;2023-06-24T12:22:30;100965.63;;;31.61;24.94
81397;BME280;70852;49.908;8.126;2023-06-24T12:24:56;100961.25;;;31.41;24.05
81397;BME280;70852;49.908;8.126;2023-06-24T12:27:23;100956.66;;;31.63;24.81
81397;BME280;70852;49.908;8.126;2023-06-24T12:29:51;100960.47;;;31.24;24.30
81397;BME280;70852;49.908;8.126;2023-06-24T12:32:16;100953.88;;;31.43;24.73
81397;BME280;70852;49.908;8.126;2023-06-24T12:34:44;100945.75;;;31.74;24.03
81397;BME280;70852;49.908;8.126;2023-06-24T12:37:09;100942.16;;;31.70;24.17
81397;BME280;70852;49.908;8.126;2023-06-24T12:39:34;100948.31;;;31.52;23.34
81397;BME280;70852;49.908;8.126;2023-06-24T12:42:02;100932.47;;;31.35;23.76
81397;BME280;70852;49.908;8.126;2023-06-24T12:44:29;100935.78;;;31.66;23.97
81397;BME280;70852;49.908;8.126;2023-06-24T12:46:57;100936.97;;;31.81;23.08
81397;BME280;70852;49.908;8.126;2023-06-24T12:49:25;100927.94;;;31.99;23.04
81397;BME280;70852;49.908;8.126;2023-06-24T12:51:50;100931.38;;;32.07;23.35
81397;BME280;70852;49.908;8.126;2023-06-24T12:54:17;100927.19;;;31.50;23.25
81397;BME280;70852;49.908;8.126;2023-06-24T12:56:43;100924.34;;;31.66;24.34
81397;BME280;70852;49.908;8.126;2023-06-24T12:59:10;100920.63;;;31.82;25.15
81397;BME280;70852;49.908;8.126;2023-06-24T13:01:36;100912.81;;;31.53;24.01
81397;BME280;70852;49.908;8.126;2023-06-24T13:04:01;100916.84;;;31.40;24.53
81397;BME280;70852;49.908;8.126;2023-06-24T13:06:29;100918.75;;;30.78;24.90
81397;BME280;70852;49.908;8.126;2023-06-24T13:08:54;100918.81;;;30.74;25.28
81397;BME280;70852;49.908;8.126;2023-06-24T13:11:22;100919.06;;;30.64;25.51
81397;BME280;70852;49.908;8.126;2023-06-24T13:13:47;100922.81;;;30.21;25.45
81397;BME280;70852;49.908;8.126;2023-06-24T13:16:15;100924.78;;;30.44;25.84
81397;BME280;70852;49.908;8.126;2023-06-24T13:18:40;100921.84;;;30.47;25.59
81397;BME280;70852;49.908;8.126;2023-06-24T13:21:06;100924.03;;;30.96;25.03
81397;BME280;70852;49.908;8.126;2023-06-24T13:23:34;100921.16;;;30.96;24.66